Terminal Aerodrome Forecast
Issued by NWS Louisville, KY

Home | Current Version | Previous Version | Text Only | Print | Product List | Glossary On
Versions: 1 2 3 4 5 6 7 8 9 10 11 12
667
FTUS43 KLMK 081728
TAFBWG
TAF
KBWG 081728Z 0818/0918 28011G17KT 6SM -RASN BR SCT025 OVC035
     FM082000 28011G18KT 5SM -SN BR OVC035
      TEMPO 0820/0824 2SM -SN BR OVC025
     FM090100 29009KT P6SM VCSH OVC025=

USA.gov is the U.S. government's official web portal to all federal, state and local government web resources and services.